Time;durP1;ratioP1;P1;durP2;ratioP2;P2;SDS_P1;SDS_P2;PMS_P1;PMS_P2;Temp;Humidity;BMP_temperature;BMP_pressure;BME280_temperature;BME280_humidity;BME280_pressure;Samples;Min_cycle;Max_cycle;Signal;HPM_P1;HPM_P2
2023/01/26 00:01:56;;;;;;;14.80;9.77;;;;;;;-143.84;94.08;44070.47;5009753;28;20877;-76
2023/01/26 00:04:23;;;;;;;8.43;6.93;;;;;;;-143.84;93.80;44059.03;5013040;28;20432;-76
2023/01/26 00:06:50;;;;;;;10.60;8.30;;;;;;;-143.84;93.96;44070.47;5013446;28;20447;-76
2023/01/26 00:09:18;;;;;;;15.13;8.90;;;;;;;-143.84;94.26;44059.03;5013405;28;21055;-76
2023/01/26 00:11:45;;;;;;;15.63;9.70;;;;;;;-143.84;94.23;44064.75;5013516;28;20500;-76
2023/01/26 00:14:12;;;;;;;11.00;8.70;;;;;;;-143.84;93.57;44055.25;5013246;28;21006;-76
2023/01/26 00:16:40;;;;;;;14.23;8.33;;;;;;;-143.84;93.76;44062.84;5013517;28;20443;-75
2023/01/26 00:19:07;;;;;;;13.27;9.10;;;;;;;-143.84;93.53;44066.66;5012725;28;20436;-76
2023/01/26 00:21:35;;;;;;;13.47;8.30;;;;;;;-143.84;94.45;44066.66;5012700;28;20443;-75
2023/01/26 00:24:03;;;;;;;14.23;7.83;;;;;;;-143.84;94.04;44070.47;5013200;28;20444;-75
2023/01/26 00:26:30;;;;;;;13.90;9.17;;;;;;;-143.84;94.37;44078.09;5012705;28;20447;-76
2023/01/26 00:29:00;;;;;;;15.63;9.00;;;;;;;-143.84;94.42;44060.94;5012343;28;20487;-75
2023/01/26 00:31:28;;;;;;;11.10;8.30;;;;;;;-143.84;94.01;44072.38;5012644;28;20448;-75
2023/01/26 00:33:57;;;;;;;15.00;8.80;;;;;;;-143.84;94.26;44074.28;5012597;28;20439;-75
2023/01/26 00:36:24;;;;;;;16.57;9.00;;;;;;;-143.84;94.01;44076.19;5012484;28;20512;-76
2023/01/26 00:38:51;;;;;;;14.20;9.37;;;;;;;-143.84;94.08;44066.66;5004586;28;20928;-76
2023/01/26 00:44:03;;;;;;;15.27;8.00;;;;;;;-143.84;94.36;44062.84;5012899;28;20431;-76
2023/01/26 00:46:31;;;;;;;11.30;8.83;;;;;;;-143.84;93.71;44066.66;5012311;28;21157;-76
2023/01/26 00:48:59;;;;;;;20.33;9.83;;;;;;;-143.84;93.91;44057.16;5012204;28;20545;-75
2023/01/26 00:51:26;;;;;;;13.93;8.07;;;;;;;-143.84;93.48;44062.84;5012243;28;20479;-76
2023/01/26 00:53:53;;;;;;;13.87;10.33;;;;;;;-143.84;93.58;44060.94;5012271;28;20541;-76
2023/01/26 00:56:21;;;;;;;16.20;9.40;;;;;;;-143.84;93.65;44060.94;5012169;28;20451;-76
2023/01/26 00:58:48;;;;;;;14.03;10.03;;;;;;;-143.84;94.11;44062.84;5011456;28;20444;-76
2023/01/26 01:01:15;;;;;;;14.30;8.63;;;;;;;-143.84;94.14;44074.28;5011029;28;20545;-76
2023/01/26 01:03:42;;;;;;;16.67;9.83;;;;;;;-143.84;94.56;44068.56;5011446;28;20518;-74
2023/01/26 01:06:11;;;;;;;13.27;9.47;;;;;;;-143.84;93.88;44062.84;5011554;28;20589;-74
2023/01/26 01:08:38;;;;;;;14.10;9.57;;;;;;;-143.84;93.95;44062.84;5011368;28;20478;-74
2023/01/26 01:11:08;;;;;;;14.67;9.50;;;;;;;-143.84;94.05;44062.84;5011620;28;20487;-74
2023/01/26 01:13:36;;;;;;;16.60;11.27;;;;;;;-143.84;94.35;44064.75;5011850;28;20439;-76
2023/01/26 01:16:06;;;;;;;16.80;10.50;;;;;;;-143.84;93.94;44078.09;5010727;28;20451;-76
2023/01/26 01:18:34;;;;;;;15.87;10.60;;;;;;;-143.84;94.55;44066.66;5011788;28;20448;-76
2023/01/26 01:21:01;;;;;;;17.70;11.17;;;;;;;-143.84;94.45;44062.84;5011510;28;20440;-76
2023/01/26 01:23:29;;;;;;;27.40;11.37;;;;;;;-143.84;94.22;44066.66;5011811;28;20444;-76
2023/01/26 01:26:00;;;;;;;17.37;10.57;;;;;;;-143.84;94.48;44072.38;5011878;28;20443;-76
2023/01/26 01:28:27;;;;;;;15.93;11.03;;;;;;;-143.84;94.44;44062.84;5011420;28;21425;-76
2023/01/26 01:30:54;;;;;;;20.40;10.10;;;;;;;-143.84;94.47;44072.38;5011385;28;20545;-76
2023/01/26 01:33:22;;;;;;;17.67;10.87;;;;;;;-143.84;93.98;44070.47;5011322;28;20514;-76
2023/01/26 01:35:59;;;;;;;14.23;9.73;;;;;;;-143.84;94.28;44068.56;5011405;28;20852;-76
2023/01/26 01:38:27;;;;;;;13.97;10.00;;;;;;;-143.84;94.79;44074.28;5011459;28;20447;-76
2023/01/26 01:40:56;;;;;;;16.50;10.00;;;;;;;-143.84;95.10;44083.78;5011509;28;20444;-76
2023/01/26 01:43:24;;;;;;;19.67;11.97;;;;;;;-143.84;94.62;44083.78;5011187;28;20502;-76
2023/01/26 01:45:51;;;;;;;16.43;10.17;;;;;;;-143.84;94.62;44099.03;5011296;28;20771;-76
2023/01/26 01:48:24;;;;;;;16.03;9.43;;;;;;;-143.84;94.33;44072.38;5011081;28;20499;-76
2023/01/26 01:50:55;;;;;;;12.57;8.87;;;;;;;-143.84;94.33;44070.47;4993486;28;20574;-76
2023/01/26 01:53:27;;;;;;;15.83;9.30;;;;;;;-143.84;94.76;44076.19;5011118;28;20439;-76
2023/01/26 01:55:59;;;;;;;17.30;9.60;;;;;;;-143.84;94.47;44081.88;5010649;28;20443;-76
2023/01/26 01:58:30;;;;;;;14.70;10.10;;;;;;;-143.84;94.62;44093.31;5010915;28;21070;-76
2023/01/26 02:00:58;;;;;;;12.87;9.43;;;;;;;-143.84;94.44;44083.78;5003387;28;20484;-76
2023/01/26 02:03:28;;;;;;;14.87;10.13;;;;;;;-143.84;94.22;44081.88;5010751;28;20535;-75
2023/01/26 02:05:59;;;;;;;12.00;8.23;;;;;;;-143.84;94.64;44081.88;4993018;28;20449;-75
2023/01/26 02:08:32;;;;;;;13.23;8.70;;;;;;;-143.84;94.22;44080.00;5010466;28;20922;-75
2023/01/26 02:11:04;;;;;;;15.73;9.60;;;;;;;-143.84;94.04;44070.47;5010323;28;21298;-75
2023/01/26 02:13:33;;;;;;;14.67;9.77;;;;;;;-143.84;94.29;44064.75;5010383;28;20457;-75
2023/01/26 02:16:01;;;;;;;16.63;10.33;;;;;;;-143.84;94.24;44066.66;5010210;28;20501;-75
2023/01/26 02:18:28;;;;;;;18.33;11.53;;;;;;;-143.84;93.64;44066.66;5010092;28;20446;-75
2023/01/26 02:20:59;;;;;;;16.30;9.03;;;;;;;-143.84;93.71;44074.28;5010273;28;20444;-74
2023/01/26 02:23:40;;;;;;;13.13;9.23;;;;;;;-143.84;93.42;44076.19;5010084;28;20502;-74
2023/01/26 02:26:12;;;;;;;16.27;9.87;;;;;;;-143.84;94.00;44062.84;5010087;28;20505;-74
2023/01/26 02:28:41;;;;;;;18.03;10.90;;;;;;;-143.84;93.57;44060.94;5010213;28;20444;-74
2023/01/26 02:31:09;;;;;;;14.83;10.13;;;;;;;-143.84;94.11;44060.94;5009972;28;20557;-74
2023/01/26 02:33:36;;;;;;;17.83;10.60;;;;;;;-143.84;94.23;44070.47;5009935;28;20443;-74
2023/01/26 02:36:04;;;;;;;18.53;11.30;;;;;;;-143.84;93.68;44068.56;5009937;28;20832;-74
2023/01/26 02:38:40;;;;;;;16.37;10.70;;;;;;;-143.84;93.81;44060.94;5010107;28;20508;-74
2023/01/26 02:41:12;;;;;;;17.00;10.00;;;;;;;-143.84;92.85;44053.34;5023257;28;20953;-74
2023/01/26 02:43:39;;;;;;;17.00;11.03;;;;;;;-143.84;92.89;44036.22;5029844;28;20506;-74
2023/01/26 02:46:06;;;;;;;14.87;10.10;;;;;;;-143.84;92.54;44034.31;5029991;28;20471;-75
2023/01/26 02:51:18;;;;;;;14.07;10.03;;;;;;;-143.84;92.79;44019.06;5029906;28;20477;-76
2023/01/26 02:53:45;;;;;;;26.50;12.20;;;;;;;-143.84;92.57;44026.69;5018580;28;20439;-75
2023/01/26 02:56:12;;;;;;;17.30;10.97;;;;;;;-143.84;92.96;44040.00;5010074;28;20433;-76
2023/01/26 02:58:40;;;;;;;22.47;12.47;;;;;;;-143.84;93.56;44047.63;5010502;28;20519;-75
2023/01/26 03:01:07;;;;;;;16.90;11.27;;;;;;;-143.84;93.71;44057.16;5009689;28;21323;-75
2023/01/26 03:03:43;;;;;;;28.87;10.70;;;;;;;-143.84;94.10;44062.84;5010235;28;20507;-75
2023/01/26 03:06:12;;;;;;;17.00;11.20;;;;;;;-143.84;93.96;44068.56;5009970;28;20480;-76
2023/01/26 03:08:40;;;;;;;15.73;10.60;;;;;;;-143.84;94.28;44080.00;5010142;28;20438;-76
2023/01/26 03:11:08;;;;;;;18.70;10.93;;;;;;;-143.84;94.64;44081.88;5009831;28;21053;-76
2023/01/26 03:13:37;;;;;;;19.47;11.43;;;;;;;-143.84;95.11;44093.31;5010079;28;21404;-76
2023/01/26 03:16:09;;;;;;;17.60;11.23;;;;;;;-143.84;94.76;44085.69;5010241;28;20871;-76
2023/01/26 03:29:36;;;;;;;19.37;11.40;;;;;;;-143.84;94.80;44102.84;5009014;28;20435;-74
2023/01/26 03:32:03;;;;;;;18.90;9.93;;;;;;;-143.84;95.18;44100.94;5008936;28;20880;-74
2023/01/26 03:34:30;;;;;;;33.53;11.67;;;;;;;-143.84;94.93;44093.31;5008985;28;20446;-74
2023/01/26 03:36:57;;;;;;;23.23;11.87;;;;;;;-143.84;94.83;44093.31;5009338;28;20443;-74
2023/01/26 03:59:07;;;;;;;19.47;11.47;;;;;;;-143.84;94.76;44089.50;4951937;29;20434;-75
2023/01/26 04:01:37;;;;;;;15.43;10.10;;;;;;;-143.84;94.59;44081.88;5002388;28;20530;-75
2023/01/26 04:09:38;;;;;;;19.40;10.57;;;;;;;-143.84;94.09;44081.88;5012769;28;20496;-75
2023/01/26 04:12:06;;;;;;;13.47;9.07;;;;;;;-143.84;93.86;44066.66;5013080;28;20447;-75
2023/01/26 04:22:49;;;;;;;11.90;8.63;;;;;;;-143.84;93.90;44081.88;5012401;28;20489;-75
2023/01/26 04:25:21;;;;;;;14.90;8.30;;;;;;;-143.84;93.82;44066.66;5012551;28;20552;-75
2023/01/26 04:27:48;;;;;;;24.00;10.10;;;;;;;-143.84;93.72;44066.66;5012610;28;20450;-75
2023/01/26 04:30:17;;;;;;;12.50;8.07;;;;;;;-143.84;93.57;44068.56;5012212;28;21080;-75
2023/01/26 04:32:46;;;;;;;15.27;7.93;;;;;;;-143.84;93.25;44059.03;5012208;28;20447;-75
2023/01/26 04:35:13;;;;;;;15.20;8.50;;;;;;;-143.84;93.61;44070.47;5011965;28;20538;-75
2023/01/26 04:37:40;;;;;;;15.10;10.10;;;;;;;-143.84;93.40;44051.44;5012037;28;20443;-75
2023/01/26 04:40:09;;;;;;;15.30;8.37;;;;;;;-143.84;92.93;44049.53;5011893;28;20443;-75
2023/01/26 04:42:36;;;;;;;13.20;8.80;;;;;;;-143.84;92.40;44038.09;5011834;28;20451;-75
2023/01/26 04:45:03;;;;;;;12.40;8.93;;;;;;;-143.84;92.35;44028.59;5012126;28;20447;-75
2023/01/26 04:47:30;;;;;;;19.87;11.30;;;;;;;-143.84;92.12;44022.88;5011780;28;20439;-75
2023/01/26 04:49:59;;;;;;;23.17;11.83;;;;;;;-143.84;91.66;44001.94;5011657;28;20872;-75
2023/01/26 04:52:26;;;;;;;18.87;12.70;;;;;;;-143.84;91.35;44005.75;5011828;28;20868;-75
2023/01/26 04:54:53;;;;;;;18.40;11.43;;;;;;;-143.84;91.13;44001.94;5003572;28;20440;-75
2023/01/26 04:57:22;;;;;;;15.27;10.70;;;;;;;-143.84;90.93;43981.00;5006475;28;20522;-75
2023/01/26 04:59:49;;;;;;;19.90;12.00;;;;;;;-143.84;90.39;43979.09;4997561;28;20546;-73
2023/01/26 05:02:16;;;;;;;22.90;13.13;;;;;;;-143.84;90.16;43977.19;4991834;28;20445;-74
2023/01/26 05:04:43;;;;;;;14.40;11.27;;;;;;;-143.84;90.26;43973.38;4991906;28;20479;-75
2023/01/26 05:07:11;;;;;;;19.20;11.33;;;;;;;-143.84;90.30;43981.00;4992078;28;20843;-73
2023/01/26 05:09:39;;;;;;;16.10;9.33;;;;;;;-143.84;90.04;43973.38;4992119;28;20464;-74
2023/01/26 05:14:47;;;;;;;16.93;9.27;;;;;;;-143.84;89.81;43971.47;4990704;28;20452;-73
2023/01/26 05:17:14;;;;;;;17.27;8.87;;;;;;;-143.84;89.81;43971.47;4991158;28;20511;-73
2023/01/26 05:19:41;;;;;;;12.90;8.57;;;;;;;-143.84;89.88;43965.78;4991355;28;20433;-73
2023/01/26 05:22:08;;;;;;;12.23;8.70;;;;;;;-143.84;89.77;43950.53;4991488;28;20445;-74
2023/01/26 05:24:37;;;;;;;17.07;9.43;;;;;;;-143.84;89.96;43958.16;4991688;28;20436;-73
2023/01/26 05:27:22;;;;;;;11.50;8.53;;;;;;;-143.84;90.11;43969.59;4991808;28;20507;-75
2023/01/26 05:29:50;;;;;;;15.30;8.80;;;;;;;-143.84;90.38;43982.91;4991914;28;20519;-75
2023/01/26 05:32:17;;;;;;;9.43;7.80;;;;;;;-143.84;90.21;43979.09;4991617;28;20925;-75
2023/01/26 05:34:45;;;;;;;11.13;8.90;;;;;;;-143.84;90.30;43975.28;4991808;28;20499;-73
2023/01/26 05:37:12;;;;;;;13.10;9.17;;;;;;;-143.84;90.50;43958.16;4992404;28;20440;-77
2023/01/26 05:39:40;;;;;;;14.70;9.70;;;;;;;-143.84;90.32;43984.81;4991611;28;20511;-75
2023/01/26 05:42:07;;;;;;;13.03;9.43;;;;;;;-143.84;90.47;43977.19;4991195;28;20495;-76
2023/01/26 05:44:34;;;;;;;14.37;9.30;;;;;;;-143.84;90.36;43956.25;4995831;28;20448;-75
2023/01/26 05:47:01;;;;;;;17.10;10.00;;;;;;;-143.84;90.31;43986.72;5003960;28;20974;-75
2023/01/26 05:49:29;;;;;;;18.43;11.30;;;;;;;-143.84;90.30;43967.69;4992131;28;20440;-76
2023/01/26 05:51:56;;;;;;;16.93;10.53;;;;;;;-143.84;90.13;43975.28;4992027;28;20480;-76
2023/01/26 05:54:24;;;;;;;15.60;10.20;;;;;;;-143.84;90.19;43973.38;4992167;28;20449;-76
2023/01/26 05:56:52;;;;;;;14.97;9.03;;;;;;;-143.84;90.16;43973.38;4992026;28;20502;-76
2023/01/26 05:59:20;;;;;;;16.73;9.30;;;;;;;-143.84;90.38;43967.69;4991943;28;20564;-76
2023/01/26 06:01:47;;;;;;;18.80;12.03;;;;;;;-143.84;90.18;43971.47;4991648;28;20452;-76
2023/01/26 06:04:14;;;;;;;20.00;11.00;;;;;;;-143.84;90.21;43971.47;4991866;28;20507;-76
2023/01/26 06:06:41;;;;;;;18.40;10.93;;;;;;;-143.84;90.43;43954.34;4991642;28;20981;-76
2023/01/26 06:09:08;;;;;;;12.53;8.67;;;;;;;-143.84;90.23;43967.69;4991725;28;20526;-76
2023/01/26 06:11:35;;;;;;;12.63;9.63;;;;;;;-143.84;90.13;43979.09;4991956;28;20476;-76
2023/01/26 06:14:04;;;;;;;10.47;7.87;;;;;;;-143.84;90.27;43979.09;4991637;28;20503;-76
2023/01/26 06:16:31;;;;;;;11.07;8.80;;;;;;;-143.84;90.51;43975.28;4991635;28;20950;-76
2023/01/26 06:18:58;;;;;;;13.63;9.20;;;;;;;-143.84;90.67;43981.00;4991411;28;20797;-76
2023/01/26 06:21:25;;;;;;;14.10;10.10;;;;;;;-143.84;90.72;43990.53;4991695;28;20467;-76
2023/01/26 06:23:52;;;;;;;17.20;10.23;;;;;;;-143.84;91.04;43986.72;4991537;28;20859;-76
2023/01/26 06:26:19;;;;;;;22.20;10.77;;;;;;;-143.84;91.22;43981.00;4991721;28;20523;-76
2023/01/26 06:28:46;;;;;;;18.60;12.77;;;;;;;-143.84;91.74;44007.66;4991809;28;20495;-76
2023/01/26 06:31:15;;;;;;;21.47;12.80;;;;;;;-143.84;92.08;44009.56;4991384;28;20480;-76
2023/01/26 06:33:42;;;;;;;17.80;11.67;;;;;;;-143.84;92.49;44024.78;4990797;28;20495;-76
2023/01/26 06:36:11;;;;;;;17.73;10.70;;;;;;;-143.84;92.58;44028.59;4991946;28;20440;-76
2023/01/26 06:38:38;;;;;;;20.63;11.50;;;;;;;-143.84;92.45;44040.00;4991693;28;20444;-76
2023/01/26 06:41:08;;;;;;;18.47;11.43;;;;;;;-143.84;92.80;44040.00;4990318;28;20449;-76
2023/01/26 06:43:36;;;;;;;20.10;11.00;;;;;;;-143.84;92.85;44041.91;4990371;28;20436;-76
2023/01/26 06:46:04;;;;;;;13.80;9.90;;;;;;;-143.84;92.66;44038.09;4990371;28;21413;-75
2023/01/26 06:48:35;;;;;;;20.70;9.90;;;;;;;-143.84;92.57;44041.91;4990322;28;20801;-75
2023/01/26 06:51:26;;;;;;;20.60;14.83;;;;;;;-143.84;92.61;44051.44;4990241;28;20614;-76
2023/01/26 06:53:54;;;;;;;17.13;10.57;;;;;;;-143.84;91.76;44032.41;4990298;28;20451;-75
2023/01/26 06:56:23;;;;;;;16.27;11.43;;;;;;;-143.84;91.61;44017.16;4990241;28;20448;-76
2023/01/26 06:58:50;;;;;;;17.80;11.53;;;;;;;-143.84;90.15;43981.00;4990166;28;20518;-76
2023/01/26 07:01:19;;;;;;;15.23;11.00;;;;;;;-143.84;90.09;43971.47;4989484;28;21081;-76
2023/01/26 07:03:49;;;;;;;11.27;8.17;;;;;;;-143.84;88.48;43946.75;4990160;28;20914;-76
2023/01/26 07:06:17;;;;;;;18.87;8.77;;;;;;;-143.84;87.47;43922.00;4989963;28;20539;-76
2023/01/26 07:08:44;;;;;;;25.10;16.03;;;;;;;-143.84;87.17;43920.09;4992456;28;20446;-85
2023/01/26 07:11:12;;;;;;;23.37;15.63;;;;;;;-143.84;86.89;43902.97;4991936;28;20482;-81
2023/01/26 07:13:39;;;;;;;231.37;103.43;;;;;;;-143.84;86.73;43895.34;4991753;28;20439;-82
2023/01/26 07:16:10;;;;;;;15.40;10.50;;;;;;;-143.84;86.68;43904.84;4992261;28;20510;-83
2023/01/26 07:18:37;;;;;;;15.13;8.40;;;;;;;-143.84;84.80;43857.28;4974911;28;20505;-83
2023/01/26 07:21:08;;;;;;;11.67;7.40;;;;;;;-143.84;84.12;43832.53;4992152;28;20522;-83
2023/01/26 07:23:35;;;;;;;12.17;7.37;;;;;;;-143.84;84.03;43857.28;4991331;28;20462;-84
2023/01/26 07:26:02;;;;;;;9.43;7.43;;;;;;;-143.84;83.63;43847.75;4992096;28;20431;-84
2023/01/26 07:28:30;;;;;;;11.70;7.87;;;;;;;-143.84;82.44;43931.50;4990092;28;20510;-75
2023/01/26 07:30:58;;;;;;;12.60;9.00;;;;;;;-143.84;82.30;43967.69;4989121;28;20592;-75
2023/01/26 07:33:25;;;;;;;18.23;7.47;;;;;;;-143.84;81.44;44081.88;4989144;28;20479;-75
2023/01/26 07:35:56;;;;;;;12.43;7.77;;;;;;;-143.84;80.98;44135.19;4989207;28;20892;-75
2023/01/26 07:38:25;;;;;;;13.60;8.97;;;;;;;-143.84;80.45;44230.38;4989080;28;20447;-75
2023/01/26 07:40:53;;;;;;;19.23;8.13;;;;;;;-143.84;81.24;44047.63;4981191;28;20457;-75
2023/01/26 07:43:20;;;;;;;13.60;8.17;;;;;;;-143.84;80.57;44163.75;4989553;28;20867;-75
2023/01/26 07:45:48;;;;;;;10.80;7.13;;;;;;;-143.84;79.28;44554.03;4989329;28;20475;-74
2023/01/26 07:48:15;;;;;;;10.60;8.00;;;;;;;-143.84;77.94;44771.06;4989142;28;20511;-75
2023/01/26 07:50:44;;;;;;;11.63;7.30;;;;;;;-143.84;77.92;44793.91;4989072;28;20461;-75
2023/01/26 07:53:11;;;;;;;13.80;8.13;;;;;;;-143.84;78.17;44713.94;4989170;28;20453;-75
2023/01/26 07:55:39;;;;;;;57.23;35.07;;;;;;;;;;4990278;28;20515;-78
2023/01/26 07:58:06;;;;;;;16.17;11.50;;;;;;;-143.84;78.19;44729.19;4991984;28;20991;-78
2023/01/26 08:00:33;;;;;;;30.90;20.67;;;;;;;-143.84;77.69;44828.19;4991144;28;20869;-77
2023/01/26 08:03:01;;;;;;;16.20;10.47;;;;;;;-143.84;77.14;44923.41;4990907;28;20442;-77
2023/01/26 08:05:28;;;;;;;6.70;5.93;;;;;;;-143.84;76.13;44980.53;4989685;28;20445;-77
2023/01/26 08:07:58;;;;;;;12.20;7.70;;;;;;;-143.84;75.93;44971.00;4989530;28;20481;-77
2023/01/26 08:10:25;;;;;;;16.03;11.63;;;;;;;-143.84;76.10;44982.41;4989618;28;20556;-76
2023/01/26 08:12:54;;;;;;;10.03;7.00;;;;;;;-143.84;76.33;44951.97;4989193;28;20557;-75
2023/01/26 08:15:21;;;;;;;9.93;6.00;;;;;;;-143.84;75.52;44997.66;4989452;28;20966;-77
2023/01/26 08:17:48;;;;;;;14.80;6.40;;;;;;;-143.84;76.23;44971.00;4989324;28;20874;-77
2023/01/26 08:20:15;;;;;;;7.40;6.60;;;;;;;-143.84;74.87;45014.78;4989603;28;20521;-77
2023/01/26 08:22:42;;;;;;;11.37;7.40;;;;;;;-143.84;74.52;45052.88;4989333;28;20444;-77
2023/01/26 08:25:10;;;;;;;12.40;7.10;;;;;;;-143.84;74.18;45077.63;4992204;28;20943;-77
2023/01/26 08:27:37;;;;;;;19.60;9.67;;;;;;;-143.84;73.70;45081.44;4993407;28;20462;-77
2023/01/26 08:30:07;;;;;;;11.20;8.33;;;;;;;-143.84;74.13;45068.13;4992643;28;20475;-77
2023/01/26 08:32:34;;;;;;;56.77;26.00;;;;;;;-143.84;74.14;45113.81;4993507;28;20525;-79
2023/01/26 08:35:01;;;;;;;59.30;29.13;;;;;;;-143.84;74.68;45085.25;4995227;28;20474;-77
2023/01/26 08:37:29;;;;;;;47.27;22.97;;;;;;;-143.84;75.01;45056.69;4993194;28;20863;-75
2023/01/26 08:39:56;;;;;;;15.10;9.00;;;;;;;-143.84;75.83;45001.47;4992956;28;20958;-75
2023/01/26 08:42:24;;;;;;;8.17;5.27;;;;;;;-143.84;77.17;44921.50;4992893;28;21135;-75
2023/01/26 08:44:51;;;;;;;9.73;5.80;;;;;;;-143.84;78.23;44748.22;4992519;28;20472;-75
2023/01/26 08:47:20;;;;;;;5.07;4.57;;;;;;;-143.84;79.05;44647.31;4994762;28;20448;-79
2023/01/26 08:49:47;;;;;;;6.70;5.57;;;;;;;-143.84;79.93;44479.78;4994583;28;20446;-78
2023/01/26 08:52:15;;;;;;;16.60;10.70;;;;;;;-143.84;80.64;44218.94;4992857;28;20554;-73
2023/01/26 08:54:42;;;;;;;31.37;19.37;;;;;;;-143.84;81.07;44112.34;4992707;28;20951;-73
2023/01/26 08:57:10;;;;;;;45.00;25.17;;;;;;;-143.84;81.75;44047.63;4992839;28;20455;-74
2023/01/26 08:59:38;;;;;;;176.43;91.83;;;;;;;-143.84;82.25;43950.53;4993408;28;20510;-77
2023/01/26 09:02:05;;;;;;;20.13;11.87;;;;;;;-143.84;82.25;43946.75;4992718;28;20444;-73
2023/01/26 09:04:34;;;;;;;11.17;7.57;;;;;;;-143.84;82.17;43939.13;4992310;28;20455;-74
2023/01/26 09:07:01;;;;;;;11.27;7.97;;;;;;;-143.84;82.82;43899.16;4992533;28;20445;-73
2023/01/26 09:09:28;;;;;;;11.90;8.30;;;;;;;-143.84;82.91;43872.50;4992476;28;20530;-74
2023/01/26 09:11:56;;;;;;;10.80;8.37;;;;;;;-143.84;84.17;43834.44;4991933;28;20491;-73
2023/01/26 09:14:24;;;;;;;12.73;9.63;;;;;;;-143.84;85.00;43849.66;4992512;28;20536;-75
2023/01/26 09:16:51;;;;;;;258.37;166.90;;;;;;;-143.84;85.09;43857.28;4992903;28;20447;-74
2023/01/26 09:19:18;;;;;;;15.83;10.43;;;;;;;-143.84;85.85;43847.75;4992165;28;20480;-74
2023/01/26 09:21:47;;;;;;;14.30;9.83;;;;;;;-143.84;86.27;43893.44;4991992;28;20455;-74
2023/01/26 09:24:14;;;;;;;15.23;10.80;;;;;;;-143.84;87.08;43880.13;4991800;28;20459;-74
2023/01/26 09:26:41;;;;;;;23.13;12.97;;;;;;;-143.84;87.26;43910.56;4992000;28;21061;-74
2023/01/26 09:29:08;;;;;;;22.87;12.50;;;;;;;-143.84;88.16;43910.56;4992366;28;20450;-79
2023/01/26 09:31:35;;;;;;;23.33;11.57;;;;;;;-143.84;88.25;43942.94;4993635;28;20482;-79
2023/01/26 09:34:02;;;;;;;27.43;11.43;;;;;;;-143.84;88.72;43922.00;4993734;28;20438;-78
2023/01/26 09:36:30;;;;;;;21.90;11.43;;;;;;;-143.84;88.42;43923.91;4992764;28;20445;-79
2023/01/26 09:38:59;;;;;;;20.40;10.03;;;;;;;-143.84;88.28;43910.56;4993200;28;20442;-79
2023/01/26 09:41:52;;;;;;;19.20;10.60;;;;;;;-143.84;88.08;43931.50;4991671;28;20571;-78
2023/01/26 09:44:24;;;;;;;17.60;10.80;;;;;;;-143.84;88.02;43918.19;4992440;28;20467;-77
2023/01/26 09:47:04;;;;;;;24.10;10.30;;;;;;;-143.84;88.01;43918.19;4993539;28;20471;-78
2023/01/26 09:49:43;;;;;;;17.03;9.90;;;;;;;-143.84;88.82;43939.13;4993606;28;20434;-77
2023/01/26 09:52:17;;;;;;;20.17;12.00;;;;;;;-143.84;88.84;43937.22;4993464;28;20486;-77
2023/01/26 09:54:50;;;;;;;20.13;11.13;;;;;;;-143.84;89.44;43956.25;4993295;28;20504;-78
2023/01/26 09:57:19;;;;;;;16.70;10.13;;;;;;;-143.84;89.92;43969.59;4993273;28;20440;-78
2023/01/26 09:59:51;;;;;;;22.93;11.07;;;;;;;-143.84;90.66;43982.91;4993155;28;20983;-74
2023/01/26 10:02:31;;;;;;;28.50;11.93;;;;;;;-143.84;92.46;44045.72;4991541;28;20446;-74
2023/01/26 10:05:03;;;;;;;50.37;31.80;;;;;;;-143.84;92.16;44034.31;4990734;28;20446;-79
2023/01/26 10:07:30;;;;;;;26.17;15.83;;;;;;;-143.84;90.40;43982.91;4990965;28;20799;-77
2023/01/26 10:09:59;;;;;;;23.33;10.67;;;;;;;-143.84;89.10;43950.53;4990906;28;20466;-77
2023/01/26 10:12:33;;;;;;;21.87;11.60;;;;;;;-143.84;89.19;43920.09;4991104;28;20542;-77
2023/01/26 10:15:07;;;;;;;18.23;10.50;;;;;;;-143.84;89.47;43952.44;4992255;28;20942;-72
2023/01/26 10:17:37;;;;;;;216.10;134.77;;;;;;;-143.84;88.87;43937.22;4991248;28;20446;-74
2023/01/26 10:20:10;;;;;;;19.10;11.13;;;;;;;-143.84;87.92;43908.66;4990753;28;20443;-73
2023/01/26 10:22:44;;;;;;;18.87;9.93;;;;;;;-143.84;87.66;43883.91;4990528;28;20455;-73
2023/01/26 10:25:17;;;;;;;18.53;9.20;;;;;;;-143.84;87.46;43925.78;4990672;28;20529;-73
2023/01/26 10:27:45;;;;;;;18.30;10.07;;;;;;;-143.84;86.68;43908.66;4990420;28;20458;-73
2023/01/26 10:30:14;;;;;;;18.20;9.47;;;;;;;-143.84;85.90;43878.22;4990496;28;20435;-73
2023/01/26 10:32:43;;;;;;;19.67;9.07;;;;;;;-143.84;85.97;43878.22;4990195;28;20493;-73
2023/01/26 10:35:17;;;;;;;17.60;9.50;;;;;;;-143.84;86.20;43857.28;4990423;28;20461;-73
2023/01/26 10:37:44;;;;;;;24.17;10.00;;;;;;;-143.84;86.64;43904.84;4990236;28;20448;-73
2023/01/26 10:40:12;;;;;;;17.20;9.90;;;;;;;-143.84;86.82;43895.34;4990057;28;21320;-73
2023/01/26 10:42:41;;;;;;;16.00;9.57;;;;;;;-143.84;86.45;43876.31;4990495;28;20520;-74
2023/01/26 10:45:26;;;;;;;20.13;9.60;;;;;;;-143.84;86.41;43887.72;4990269;28;20519;-73
2023/01/26 10:48:13;;;;;;;20.83;9.90;;;;;;;-143.84;86.06;43876.31;4990064;28;20439;-73
2023/01/26 10:50:40;;;;;;;14.90;10.73;;;;;;;-143.84;85.83;43861.06;4989962;28;20443;-73
2023/01/26 10:53:15;;;;;;;14.53;8.70;;;;;;;-143.84;84.81;43851.56;4990011;28;20474;-73
2023/01/26 10:55:42;;;;;;;23.90;10.10;;;;;;;-143.84;84.48;43819.19;4989913;28;20559;-74
2023/01/26 10:58:40;;;;;;;13.40;7.97;;;;;;;-143.84;84.48;43874.41;4992935;28;20450;-73
2023/01/26 11:01:11;;;;;;;16.50;8.70;;;;;;;-143.84;83.93;43866.78;4995646;28;20516;-73
2023/01/26 11:03:39;;;;;;;19.03;8.63;;;;;;;-143.84;83.64;43851.56;4990242;28;20459;-74
2023/01/26 11:06:08;;;;;;;189.60;106.40;;;;;;;-143.84;83.05;43920.09;4989857;28;20448;-72
2023/01/26 11:08:39;;;;;;;15.47;9.23;;;;;;;-143.84;82.62;43982.91;4989507;28;20953;-73
2023/01/26 11:11:09;;;;;;;16.80;8.67;;;;;;;-143.84;82.52;43998.13;4989261;28;20451;-73
2023/01/26 11:13:37;;;;;;;11.10;8.73;;;;;;;-143.84;82.64;43971.47;4989112;28;20601;-74
2023/01/26 11:16:14;;;;;;;18.43;8.53;;;;;;;-143.84;82.43;43998.13;4989678;28;20521;-73
2023/01/26 11:18:51;;;;;;;19.13;8.70;;;;;;;-143.84;81.98;44083.78;4989983;28;20455;-73
2023/01/26 11:21:23;;;;;;;19.80;8.60;;;;;;;-143.84;82.18;44047.63;4989671;28;20443;-73
2023/01/26 11:23:59;;;;;;;18.47;9.63;;;;;;;-143.84;82.41;44005.75;4989366;28;20514;-73
2023/01/26 11:27:01;;;;;;;17.57;9.30;;;;;;;-143.84;81.75;44100.94;4989150;28;20486;-73
2023/01/26 11:29:48;;;;;;;16.77;9.40;;;;;;;-143.84;81.42;44213.25;4988742;28;20490;-73
2023/01/26 11:32:27;;;;;;;16.07;10.00;;;;;;;-143.84;80.69;44439.78;4989031;28;20486;-73
2023/01/26 11:35:09;;;;;;;13.87;9.47;;;;;;;-143.84;81.07;44331.28;4989560;28;20439;-73
2023/01/26 11:37:45;;;;;;;15.93;9.00;;;;;;;-143.84;80.82;44401.72;4989658;28;20515;-73
2023/01/26 11:40:26;;;;;;;21.13;9.90;;;;;;;-143.84;80.64;44411.22;4989660;28;20516;-73
2023/01/26 11:43:18;;;;;;;17.13;9.00;;;;;;;-143.84;80.12;44594.00;4989616;28;20529;-71
2023/01/26 11:46:04;;;;;;;103.70;58.57;;;;;;;-143.84;80.82;44350.31;4989749;28;20440;-71
2023/01/26 11:48:43;;;;;;;23.93;14.97;;;;;;;-143.84;79.87;44630.19;4990066;28;20486;-73
2023/01/26 11:51:21;;;;;;;28.63;11.50;;;;;;;-143.84;79.83;44677.78;4989089;28;20483;-73
2023/01/26 11:54:07;;;;;;;20.73;13.10;;;;;;;-143.84;79.08;44736.81;4989356;28;20553;-73
2023/01/26 11:56:44;;;;;;;17.87;9.47;;;;;;;-143.84;78.79;44830.09;4989145;28;20455;-73
2023/01/26 11:59:18;;;;;;;15.43;9.60;;;;;;;-143.84;78.31;44864.38;4990411;28;20439;-73
2023/01/26 12:01:54;;;;;;;15.93;8.33;;;;;;;-143.84;78.66;44877.69;4993281;28;20444;-72
2023/01/26 12:04:22;;;;;;;16.87;9.93;;;;;;;-143.84;78.52;44858.66;4993165;28;20457;-72
2023/01/26 12:06:55;;;;;;;14.47;9.50;;;;;;;-143.84;77.73;44955.75;4992715;28;20447;-72
2023/01/26 12:09:31;;;;;;;15.27;9.10;;;;;;;-143.84;78.23;44881.50;4992811;28;20454;-72
2023/01/26 12:12:04;;;;;;;15.27;9.47;;;;;;;-143.84;77.88;44971.00;4992726;28;20443;-72